sensor_id;sensor_type;location;lat;lon;timestamp;pressure;altitude;pressure_sealevel;temperature;humidity
10978;BME280;5542;48.272;10.794;2023-04-21T00:01:20;95322.38;;;5.87;96.28
10978;BME280;5542;48.272;10.794;2023-04-21T00:03:46;95319.97;;;5.92;96.35
10978;BME280;5542;48.272;10.794;2023-04-21T00:06:13;95325.38;;;5.90;96.37
10978;BME280;5542;48.272;10.794;2023-04-21T00:08:46;95317.53;;;5.90;96.72
10978;BME280;5542;48.272;10.794;2023-04-21T00:11:14;95314.31;;;5.88;96.90
10978;BME280;5542;48.272;10.794;2023-04-21T00:13:41;95315.94;;;5.89;96.93
10978;BME280;5542;48.272;10.794;2023-04-21T00:16:07;95307.91;;;5.91;96.77
10978;BME280;5542;48.272;10.794;2023-04-21T00:18:34;95307.09;;;5.90;97.21
10978;BME280;5542;48.272;10.794;2023-04-21T00:21:00;95308.13;;;5.89;97.27
10978;BME280;5542;48.272;10.794;2023-04-21T00:23:27;95306.31;;;5.90;97.59
10978;BME280;5542;48.272;10.794;2023-04-21T00:25:53;95299.88;;;5.93;97.54
10978;BME280;5542;48.272;10.794;2023-04-21T00:28:21;95306.91;;;5.92;97.40
10978;BME280;5542;48.272;10.794;2023-04-21T00:30:48;95295.06;;;5.89;97.56
10978;BME280;5542;48.272;10.794;2023-04-21T00:33:14;95294.28;;;5.89;97.64
10978;BME280;5542;48.272;10.794;2023-04-21T00:35:41;95299.94;;;5.79;97.92
10978;BME280;5542;48.272;10.794;2023-04-21T00:38:08;95299.16;;;5.72;98.03
10978;BME280;5542;48.272;10.794;2023-04-21T00:40:34;95295.53;;;5.73;98.17
10978;BME280;5542;48.272;10.794;2023-04-21T00:43:04;95303.38;;;5.73;98.71
10978;BME280;5542;48.272;10.794;2023-04-21T00:45:32;95300.94;;;5.78;98.72
10978;BME280;5542;48.272;10.794;2023-04-21T00:47:59;95303.13;;;5.81;98.69
10978;BME280;5542;48.272;10.794;2023-04-21T00:50:26;95300.69;;;5.86;98.83
10978;BME280;5542;48.272;10.794;2023-04-21T00:52:54;95302.69;;;5.91;98.64
10978;BME280;5542;48.272;10.794;2023-04-21T00:55:21;95307.09;;;5.97;98.27
10978;BME280;5542;48.272;10.794;2023-04-21T00:57:49;95300.28;;;5.96;97.71
10978;BME280;5542;48.272;10.794;2023-04-21T01:00:16;95302.69;;;5.91;97.76
10978;BME280;5542;48.272;10.794;2023-04-21T01:02:44;95299.09;;;5.92;97.96
10978;BME280;5542;48.272;10.794;2023-04-21T01:05:11;95298.91;;;5.94;97.82
10978;BME280;5542;48.272;10.794;2023-04-21T01:07:40;95293.47;;;5.95;97.81
10978;BME280;5542;48.272;10.794;2023-04-21T01:10:07;95288.25;;;5.95;97.70
10978;BME280;5542;48.272;10.794;2023-04-21T01:12:41;95287.00;;;5.98;97.66
10978;BME280;5542;48.272;10.794;2023-04-21T01:15:09;95285.22;;;5.98;97.41
10978;BME280;5542;48.272;10.794;2023-04-21T01:17:36;95292.63;;;6.01;97.37
10978;BME280;5542;48.272;10.794;2023-04-21T01:20:10;95299.81;;;6.06;97.18
10978;BME280;5542;48.272;10.794;2023-04-21T01:22:40;95303.03;;;6.08;97.12
10978;BME280;5542;48.272;10.794;2023-04-21T01:25:08;95299.59;;;6.07;96.47
10978;BME280;5542;48.272;10.794;2023-04-21T01:27:35;95295.38;;;6.06;96.26
10978;BME280;5542;48.272;10.794;2023-04-21T01:30:03;95302.22;;;6.07;96.61
10978;BME280;5542;48.272;10.794;2023-04-21T01:32:30;95299.41;;;6.09;96.56
10978;BME280;5542;48.272;10.794;2023-04-21T01:34:57;95297.81;;;6.08;96.33
10978;BME280;5542;48.272;10.794;2023-04-21T01:37:26;95282.72;;;6.10;96.16
10978;BME280;5542;48.272;10.794;2023-04-21T01:39:56;95282.72;;;6.10;96.14
10978;BME280;5542;48.272;10.794;2023-04-21T01:42:25;95283.69;;;6.15;95.73
10978;BME280;5542;48.272;10.794;2023-04-21T01:44:53;95272.03;;;6.18;95.37
10978;BME280;5542;48.272;10.794;2023-04-21T01:47:20;95272.22;;;6.16;95.15
10978;BME280;5542;48.272;10.794;2023-04-21T01:49:47;95269.84;;;6.15;95.01
10978;BME280;5542;48.272;10.794;2023-04-21T01:52:13;95272.06;;;6.11;94.70
10978;BME280;5542;48.272;10.794;2023-04-21T01:54:40;95270.69;;;6.09;94.87
10978;BME280;5542;48.272;10.794;2023-04-21T01:57:08;95271.09;;;6.06;95.10
10978;BME280;5542;48.272;10.794;2023-04-21T01:59:35;95265.50;;;6.02;95.12
10978;BME280;5542;48.272;10.794;2023-04-21T02:02:01;95255.66;;;6.04;95.10
10978;BME280;5542;48.272;10.794;2023-04-21T02:04:28;95252.03;;;6.05;94.62
10978;BME280;5542;48.272;10.794;2023-04-21T02:06:55;95255.84;;;6.03;94.52
10978;BME280;5542;48.272;10.794;2023-04-21T02:09:21;95253.91;;;5.98;94.71
10978;BME280;5542;48.272;10.794;2023-04-21T02:11:48;95249.63;;;6.04;93.93
10978;BME280;5542;48.272;10.794;2023-04-21T02:14:16;95243.47;;;5.98;94.25
10978;BME280;5542;48.272;10.794;2023-04-21T02:16:42;95250.47;;;5.98;94.58
10978;BME280;5542;48.272;10.794;2023-04-21T02:19:09;95242.22;;;6.01;94.47
10978;BME280;5542;48.272;10.794;2023-04-21T02:21:35;95239.59;;;6.01;94.41
10978;BME280;5542;48.272;10.794;2023-04-21T02:24:02;95242.22;;;6.01;94.40
10978;BME280;5542;48.272;10.794;2023-04-21T02:26:30;95247.28;;;5.96;94.39
10978;BME280;5542;48.272;10.794;2023-04-21T02:28:56;95249.88;;;5.96;93.75
10978;BME280;5542;48.272;10.794;2023-04-21T02:31:24;95240.44;;;5.88;94.20
10978;BME280;5542;48.272;10.794;2023-04-21T02:33:51;95238.06;;;5.86;94.46
10978;BME280;5542;48.272;10.794;2023-04-21T02:36:19;95246.69;;;5.87;94.69
10978;BME280;5542;48.272;10.794;2023-04-21T02:38:45;95250.88;;;5.88;94.55
10978;BME280;5542;48.272;10.794;2023-04-21T02:41:12;95248.88;;;5.90;94.38
10978;BME280;5542;48.272;10.794;2023-04-21T02:43:38;95252.50;;;5.89;94.46
10978;BME280;5542;48.272;10.794;2023-04-21T02:46:05;95244.69;;;5.89;94.21
10978;BME280;5542;48.272;10.794;2023-04-21T02:48:34;95256.91;;;5.88;94.53
10978;BME280;5542;48.272;10.794;2023-04-21T02:51:01;95254.91;;;5.90;94.37
10978;BME280;5542;48.272;10.794;2023-04-21T02:53:28;95245.25;;;5.91;94.33
10978;BME280;5542;48.272;10.794;2023-04-21T02:55:55;95241.25;;;5.88;93.50
10978;BME280;5542;48.272;10.794;2023-04-21T02:58:21;95241.09;;;5.83;93.26
10978;BME280;5542;48.272;10.794;2023-04-21T03:00:48;95243.16;;;5.75;93.47
10978;BME280;5542;48.272;10.794;2023-04-21T03:03:15;95258.25;;;5.66;94.33
10978;BME280;5542;48.272;10.794;2023-04-21T03:05:43;95259.47;;;5.63;94.96
10978;BME280;5542;48.272;10.794;2023-04-21T03:08:10;95259.47;;;5.63;95.61
10978;BME280;5542;48.272;10.794;2023-04-21T03:10:36;95259.84;;;5.67;95.93
10978;BME280;5542;48.272;10.794;2023-04-21T03:13:03;95255.22;;;5.69;95.90
10978;BME280;5542;48.272;10.794;2023-04-21T03:15:30;95263.59;;;5.78;95.69
10978;BME280;5542;48.272;10.794;2023-04-21T03:17:57;95257.38;;;5.79;95.70
10978;BME280;5542;48.272;10.794;2023-04-21T03:20:23;95259.56;;;5.82;95.72
10978;BME280;5542;48.272;10.794;2023-04-21T03:22:53;95263.78;;;5.83;95.60
10978;BME280;5542;48.272;10.794;2023-04-21T03:25:20;95259.34;;;5.83;95.38
10978;BME280;5542;48.272;10.794;2023-04-21T03:27:46;95257.13;;;5.87;95.32
10978;BME280;5542;48.272;10.794;2023-04-21T03:30:13;95250.09;;;5.87;95.08
10978;BME280;5542;48.272;10.794;2023-04-21T03:32:39;95258.91;;;5.93;94.68
10978;BME280;5542;48.272;10.794;2023-04-21T03:35:06;95265.94;;;5.93;94.44
10978;BME280;5542;48.272;10.794;2023-04-21T03:37:33;95264.13;;;5.93;94.44
10978;BME280;5542;48.272;10.794;2023-04-21T03:40:01;95265.94;;;5.93;94.38
10978;BME280;5542;48.272;10.794;2023-04-21T03:42:30;95253.91;;;5.92;94.38
10978;BME280;5542;48.272;10.794;2023-04-21T03:45:00;95250.28;;;5.93;94.24
10978;BME280;5542;48.272;10.794;2023-04-21T03:47:26;95240.00;;;5.98;93.95
10978;BME280;5542;48.272;10.794;2023-04-21T03:49:53;95239.44;;;5.96;93.53
10978;BME280;5542;48.272;10.794;2023-04-21T03:52:20;95249.69;;;5.90;93.58
10978;BME280;5542;48.272;10.794;2023-04-21T03:54:46;95249.06;;;5.88;93.16
10978;BME280;5542;48.272;10.794;2023-04-21T03:57:14;95264.00;;;5.81;93.05
10978;BME280;5542;48.272;10.794;2023-04-21T03:59:41;95257.59;;;5.77;93.49
10978;BME280;5542;48.272;10.794;2023-04-21T04:02:08;95260.19;;;5.77;93.89
10978;BME280;5542;48.272;10.794;2023-04-21T04:04:34;95252.97;;;5.79;94.06
10978;BME280;5542;48.272;10.794;2023-04-21T04:07:01;95262.19;;;5.82;94.08
10978;BME280;5542;48.272;10.794;2023-04-21T04:09:29;95251.75;;;5.82;94.13
10978;BME280;5542;48.272;10.794;2023-04-21T04:11:55;95256.09;;;5.88;94.05
10978;BME280;5542;48.272;10.794;2023-04-21T04:14:23;95255.31;;;5.87;93.95
10978;BME280;5542;48.272;10.794;2023-04-21T04:16:50;95251.13;;;5.86;94.15
10978;BME280;5542;48.272;10.794;2023-04-21T04:19:16;95248.50;;;5.86;94.15
10978;BME280;5542;48.272;10.794;2023-04-21T04:21:43;95265.75;;;5.87;94.03
10978;BME280;5542;48.272;10.794;2023-04-21T04:24:09;95263.59;;;5.84;93.92
10978;BME280;5542;48.272;10.794;2023-04-21T04:26:36;95263.16;;;5.87;94.10
10978;BME280;5542;48.272;10.794;2023-04-21T04:29:04;95264.75;;;5.88;93.48
10978;BME280;5542;48.272;10.794;2023-04-21T04:31:36;95267.78;;;5.85;93.19
10978;BME280;5542;48.272;10.794;2023-04-21T04:34:02;95266.66;;;5.75;93.50
10978;BME280;5542;48.272;10.794;2023-04-21T04:36:29;95259.50;;;5.57;94.46
10978;BME280;5542;48.272;10.794;2023-04-21T04:38:55;95256.19;;;5.36;96.09
10978;BME280;5542;48.272;10.794;2023-04-21T04:41:22;95259.06;;;5.15;97.72
10978;BME280;5542;48.272;10.794;2023-04-21T04:43:50;95250.44;;;5.08;99.09
10978;BME280;5542;48.272;10.794;2023-04-21T04:46:17;95254.09;;;5.00;99.94
10978;BME280;5542;48.272;10.794;2023-04-21T04:48:46;95261.88;;;5.07;99.73
10978;BME280;5542;48.272;10.794;2023-04-21T04:51:12;95266.31;;;5.13;99.00
10978;BME280;5542;48.272;10.794;2023-04-21T04:53:39;95270.50;;;5.07;99.18
10978;BME280;5542;48.272;10.794;2023-04-21T04:56:06;95264.88;;;5.10;99.74
10978;BME280;5542;48.272;10.794;2023-04-21T04:58:32;95276.91;;;5.18;99.97
10978;BME280;5542;48.272;10.794;2023-04-21T05:01:09;95274.88;;;5.20;100.00
10978;BME280;5542;48.272;10.794;2023-04-21T05:03:36;95279.88;;;5.28;100.00
10978;BME280;5542;48.272;10.794;2023-04-21T05:06:04;95290.50;;;5.33;99.83
10978;BME280;5542;48.272;10.794;2023-04-21T05:08:31;95291.69;;;5.37;99.91
10978;BME280;5542;48.272;10.794;2023-04-21T05:10:57;95289.03;;;5.51;99.02
10978;BME280;5542;48.272;10.794;2023-04-21T05:13:24;95290.84;;;5.44;98.82
10978;BME280;5542;48.272;10.794;2023-04-21T05:15:56;95293.91;;;5.34;99.32
10978;BME280;5542;48.272;10.794;2023-04-21T05:18:22;95296.69;;;5.39;99.97
10978;BME280;5542;48.272;10.794;2023-04-21T05:20:49;95294.03;;;5.46;100.00
10978;BME280;5542;48.272;10.794;2023-04-21T05:23:17;95294.03;;;5.52;100.00
10978;BME280;5542;48.272;10.794;2023-04-21T05:25:44;95299.59;;;5.62;100.00
10978;BME280;5542;48.272;10.794;2023-04-21T05:28:11;95294.34;;;5.69;100.00
10978;BME280;5542;48.272;10.794;2023-04-21T05:30:37;95308.00;;;5.71;100.00
10978;BME280;5542;48.272;10.794;2023-04-21T05:33:04;95309.03;;;5.70;99.40
10978;BME280;5542;48.272;10.794;2023-04-21T05:35:31;95302.63;;;5.66;98.91
10978;BME280;5542;48.272;10.794;2023-04-21T05:37:58;95301.81;;;5.65;99.58
10978;BME280;5542;48.272;10.794;2023-04-21T05:40:26;95298.38;;;5.72;99.68
10978;BME280;5542;48.272;10.794;2023-04-21T05:42:52;95302.16;;;5.76;99.30
10978;BME280;5542;48.272;10.794;2023-04-21T05:45:19;95298.75;;;5.75;99.23
10978;BME280;5542;48.272;10.794;2023-04-21T05:47:45;95304.78;;;5.76;99.46
10978;BME280;5542;48.272;10.794;2023-04-21T05:50:12;95302.97;;;5.76;99.56
10978;BME280;5542;48.272;10.794;2023-04-21T05:52:38;95288.34;;;5.69;99.99
10978;BME280;5542;48.272;10.794;2023-04-21T05:55:06;95286.69;;;5.81;99.88
10978;BME280;5542;48.272;10.794;2023-04-21T05:57:34;95284.47;;;5.84;100.00
10978;BME280;5542;48.272;10.794;2023-04-21T06:00:00;95293.25;;;5.90;100.00
10978;BME280;5542;48.272;10.794;2023-04-21T06:02:27;95289.84;;;5.96;100.00
10978;BME280;5542;48.272;10.794;2023-04-21T06:04:53;95287.59;;;6.00;100.00
10978;BME280;5542;48.272;10.794;2023-04-21T06:07:20;95287.78;;;6.05;100.00
10978;BME280;5542;48.272;10.794;2023-04-21T06:09:49;95296.97;;;6.14;100.00
10978;BME280;5542;48.272;10.794;2023-04-21T06:12:16;95308.31;;;6.26;100.00
10978;BME280;5542;48.272;10.794;2023-04-21T06:14:44;95299.38;;;6.40;99.58
10978;BME280;5542;48.272;10.794;2023-04-21T06:17:15;95301.16;;;6.47;97.67
10978;BME280;5542;48.272;10.794;2023-04-21T06:19:41;95300.00;;;6.36;97.85
10978;BME280;5542;48.272;10.794;2023-04-21T06:22:08;95297.69;;;6.28;99.23
10978;BME280;5542;48.272;10.794;2023-04-21T06:24:35;95299.22;;;6.35;97.88
10978;BME280;5542;48.272;10.794;2023-04-21T06:27:01;95298.69;;;6.27;98.50
10978;BME280;5542;48.272;10.794;2023-04-21T06:29:28;95304.56;;;6.22;99.16
10978;BME280;5542;48.272;10.794;2023-04-21T06:31:56;95302.34;;;6.19;99.92
10978;BME280;5542;48.272;10.794;2023-04-21T06:34:22;95291.28;;;6.24;99.86
10978;BME280;5542;48.272;10.794;2023-04-21T06:36:49;95287.22;;;6.28;100.00
10978;BME280;5542;48.272;10.794;2023-04-21T06:39:15;95284.81;;;6.26;100.00
10978;BME280;5542;48.272;10.794;2023-04-21T06:41:42;95297.59;;;6.41;100.00
10978;BME280;5542;48.272;10.794;2023-04-21T06:44:08;95301.16;;;6.47;100.00
10978;BME280;5542;48.272;10.794;2023-04-21T06:46:38;95296.66;;;6.54;100.00
10978;BME280;5542;48.272;10.794;2023-04-21T06:49:06;95292.06;;;6.56;99.72
10978;BME280;5542;48.272;10.794;2023-04-21T06:51:32;95291.53;;;6.40;98.92
10978;BME280;5542;48.272;10.794;2023-04-21T06:53:59;95293.00;;;6.36;99.61
10978;BME280;5542;48.272;10.794;2023-04-21T06:56:26;95305.53;;;6.21;98.18
10978;BME280;5542;48.272;10.794;2023-04-21T06:58:53;95299.25;;;6.04;99.55
10978;BME280;5542;48.272;10.794;2023-04-21T07:01:19;95296.66;;;5.97;100.00
10978;BME280;5542;48.272;10.794;2023-04-21T07:03:48;95291.25;;;5.92;100.00
10978;BME280;5542;48.272;10.794;2023-04-21T07:06:16;95295.00;;;6.03;100.00
10978;BME280;5542;48.272;10.794;2023-04-21T07:08:42;95291.81;;;6.01;100.00
10978;BME280;5542;48.272;10.794;2023-04-21T07:11:09;95289.78;;;6.03;100.00
10978;BME280;5542;48.272;10.794;2023-04-21T07:13:36;95280.41;;;5.88;100.00
10978;BME280;5542;48.272;10.794;2023-04-21T07:16:02;95274.09;;;6.09;100.00
10978;BME280;5542;48.272;10.794;2023-04-21T07:18:29;95273.63;;;6.19;100.00
10978;BME280;5542;48.272;10.794;2023-04-21T07:20:56;95272.75;;;6.32;100.00
10978;BME280;5542;48.272;10.794;2023-04-21T07:23:24;95269.84;;;6.40;100.00
10978;BME280;5542;48.272;10.794;2023-04-21T07:25:51;95267.31;;;6.33;100.00
10978;BME280;5542;48.272;10.794;2023-04-21T07:28:17;95271.50;;;6.34;100.00
10978;BME280;5542;48.272;10.794;2023-04-21T07:30:44;95270.22;;;6.44;100.00
10978;BME280;5542;48.272;10.794;2023-04-21T07:33:11;95267.34;;;6.52;100.00
10978;BME280;5542;48.272;10.794;2023-04-21T07:35:37;95268.78;;;6.73;100.00
10978;BME280;5542;48.272;10.794;2023-04-21T07:38:04;95280.19;;;6.78;99.58
10978;BME280;5542;48.272;10.794;2023-04-21T07:40:32;95282.31;;;6.88;97.94
10978;BME280;5542;48.272;10.794;2023-04-21T07:42:58;95291.63;;;6.84;98.97
10978;BME280;5542;48.272;10.794;2023-04-21T07:45:25;95292.56;;;6.89;97.86
10978;BME280;5542;48.272;10.794;2023-04-21T07:47:52;95296.34;;;6.93;99.23
10978;BME280;5542;48.272;10.794;2023-04-21T07:50:18;95290.41;;;7.23;99.96
10978;BME280;5542;48.272;10.794;2023-04-21T07:52:45;95290.97;;;7.62;100.00
10978;BME280;5542;48.272;10.794;2023-04-21T07:55:12;95297.34;;;7.84;93.46
10978;BME280;5542;48.272;10.794;2023-04-21T07:57:40;95290.06;;;7.86;91.63
10978;BME280;5542;48.272;10.794;2023-04-21T08:00:08;95285.84;;;7.85;91.93
10978;BME280;5542;48.272;10.794;2023-04-21T08:02:35;95282.28;;;8.10;93.55
10978;BME280;5542;48.272;10.794;2023-04-21T08:05:02;95284.09;;;8.39;96.09
10978;BME280;5542;48.272;10.794;2023-04-21T08:07:28;95283.47;;;8.56;94.56
10978;BME280;5542;48.272;10.794;2023-04-21T08:09:56;95283.72;;;8.89;89.32
10978;BME280;5542;48.272;10.794;2023-04-21T08:12:22;95275.84;;;9.01;86.38
10978;BME280;5542;48.272;10.794;2023-04-21T08:14:50;95284.38;;;8.96;84.49
10978;BME280;5542;48.272;10.794;2023-04-21T08:17:17;95276.19;;;8.81;86.47
10978;BME280;5542;48.272;10.794;2023-04-21T08:19:43;95271.38;;;8.66;87.90
10978;BME280;5542;48.272;10.794;2023-04-21T08:22:10;95264.44;;;8.84;87.46
10978;BME280;5542;48.272;10.794;2023-04-21T08:24:37;95267.06;;;8.95;85.56
10978;BME280;5542;48.272;10.794;2023-04-21T08:27:03;95271.16;;;9.15;83.64
10978;BME280;5542;48.272;10.794;2023-04-21T08:29:30;95264.53;;;9.36;83.46
10978;BME280;5542;48.272;10.794;2023-04-21T08:31:58;95265.53;;;9.75;81.09
10978;BME280;5542;48.272;10.794;2023-04-21T08:34:25;95260.19;;;9.98;81.55
10978;BME280;5542;48.272;10.794;2023-04-21T08:36:51;95250.34;;;10.51;79.68
10978;BME280;5542;48.272;10.794;2023-04-21T08:39:18;95253.34;;;10.76;75.95
10978;BME280;5542;48.272;10.794;2023-04-21T08:41:45;95257.44;;;10.84;75.01
10978;BME280;5542;48.272;10.794;2023-04-21T08:44:12;95257.28;;;10.74;74.38
10978;BME280;5542;48.272;10.794;2023-04-21T08:46:40;95255.84;;;10.83;71.84
10978;BME280;5542;48.272;10.794;2023-04-21T08:49:11;95255.13;;;10.71;75.58
10978;BME280;5542;48.272;10.794;2023-04-21T08:51:38;95249.28;;;11.02;74.01
10978;BME280;5542;48.272;10.794;2023-04-21T08:54:05;95248.69;;;11.17;74.93
10978;BME280;5542;48.272;10.794;2023-04-21T08:56:32;95239.06;;;11.28;72.01
10978;BME280;5542;48.272;10.794;2023-04-21T08:58:58;95239.75;;;11.40;73.66
10978;BME280;5542;48.272;10.794;2023-04-21T09:01:25;95245.50;;;11.59;69.93
10978;BME280;5542;48.272;10.794;2023-04-21T09:03:52;95248.81;;;11.27;73.29
10978;BME280;5542;48.272;10.794;2023-04-21T09:06:20;95248.25;;;11.47;71.42
10978;BME280;5542;48.272;10.794;2023-04-21T09:08:52;95240.94;;;11.76;74.18
10978;BME280;5542;48.272;10.794;2023-04-21T09:11:20;95257.47;;;12.16;68.36
10978;BME280;5542;48.272;10.794;2023-04-21T09:13:48;95258.25;;;11.89;68.69
10978;BME280;5542;48.272;10.794;2023-04-21T09:16:16;95253.38;;;11.81;70.55
10978;BME280;5542;48.272;10.794;2023-04-21T09:18:44;95251.19;;;11.95;67.91
10978;BME280;5542;48.272;10.794;2023-04-21T09:21:12;95252.25;;;12.21;68.99
10978;BME280;5542;48.272;10.794;2023-04-21T09:23:44;95248.44;;;12.39;71.18
10978;BME280;5542;48.272;10.794;2023-04-21T09:26:12;95249.28;;;12.81;66.54
10978;BME280;5542;48.272;10.794;2023-04-21T09:28:41;95252.00;;;12.87;63.47
10978;BME280;5542;48.272;10.794;2023-04-21T09:31:12;95248.44;;;13.08;63.29
10978;BME280;5542;48.272;10.794;2023-04-21T09:33:44;95258.44;;;13.48;63.49
10978;BME280;5542;48.272;10.794;2023-04-21T09:36:17;95239.00;;;13.85;63.39
10978;BME280;5542;48.272;10.794;2023-04-21T09:38:57;95255.91;;;13.74;59.42
10978;BME280;5542;48.272;10.794;2023-04-21T09:41:24;95247.28;;;13.36;59.67
10978;BME280;5542;48.272;10.794;2023-04-21T09:43:51;95246.72;;;13.29;61.81
10978;BME280;5542;48.272;10.794;2023-04-21T09:46:18;95247.31;;;13.41;64.46
10978;BME280;5542;48.272;10.794;2023-04-21T09:48:46;95250.56;;;13.58;61.18
10978;BME280;5542;48.272;10.794;2023-04-21T09:51:15;95238.56;;;13.36;61.07
10978;BME280;5542;48.272;10.794;2023-04-21T09:53:43;95247.84;;;13.43;61.88
10978;BME280;5542;48.272;10.794;2023-04-21T09:56:13;95244.81;;;13.77;62.54
10978;BME280;5542;48.272;10.794;2023-04-21T09:58:46;95242.44;;;13.86;62.08
10978;BME280;5542;48.272;10.794;2023-04-21T10:01:14;95251.34;;;13.59;61.50
10978;BME280;5542;48.272;10.794;2023-04-21T10:03:42;95239.50;;;13.72;62.14
10978;BME280;5542;48.272;10.794;2023-04-21T10:06:10;95233.19;;;13.73;62.67
10978;BME280;5542;48.272;10.794;2023-04-21T10:08:37;95231.69;;;14.13;62.90
10978;BME280;5542;48.272;10.794;2023-04-21T10:11:05;95235.94;;;14.34;60.85
10978;BME280;5542;48.272;10.794;2023-04-21T10:13:34;95220.63;;;14.77;60.60
10978;BME280;5542;48.272;10.794;2023-04-21T10:16:02;95214.53;;;14.56;61.99
10978;BME280;5542;48.272;10.794;2023-04-21T10:18:34;95213.97;;;14.33;61.84
10978;BME280;5542;48.272;10.794;2023-04-21T10:21:04;95213.19;;;14.23;62.51
10978;BME280;5542;48.272;10.794;2023-04-21T10:23:35;95216.59;;;14.08;61.48
10978;BME280;5542;48.272;10.794;2023-04-21T10:26:08;95218.94;;;13.84;62.08
10978;BME280;5542;48.272;10.794;2023-04-21T10:28:43;95221.53;;;13.74;61.28
10978;BME280;5542;48.272;10.794;2023-04-21T10:31:19;95218.44;;;13.92;62.68
10978;BME280;5542;48.272;10.794;2023-04-21T10:34:13;95215.81;;;14.02;65.56
10978;BME280;5542;48.272;10.794;2023-04-21T10:36:49;95217.66;;;14.17;62.28
10978;BME280;5542;48.272;10.794;2023-04-21T10:39:27;95218.47;;;14.23;64.17
10978;BME280;5542;48.272;10.794;2023-04-21T10:41:56;95217.38;;;14.03;62.40
10978;BME280;5542;48.272;10.794;2023-04-21T10:44:27;95216.09;;;14.16;62.37
10978;BME280;5542;48.272;10.794;2023-04-21T10:46:54;95207.88;;;14.28;63.42
10978;BME280;5542;48.272;10.794;2023-04-21T10:49:25;95209.50;;;14.39;61.58
10978;BME280;5542;48.272;10.794;2023-04-21T10:52:11;95207.88;;;14.28;61.81
10978;BME280;5542;48.272;10.794;2023-04-21T10:54:42;95212.09;;;14.14;63.31
10978;BME280;5542;48.272;10.794;2023-04-21T10:57:12;95219.53;;;14.17;63.94
10978;BME280;5542;48.272;10.794;2023-04-21T10:59:40;95200.50;;;14.25;62.94
10978;BME280;5542;48.272;10.794;2023-04-21T11:02:10;95207.38;;;14.36;62.39
10978;BME280;5542;48.272;10.794;2023-04-21T11:04:37;95212.66;;;14.21;61.45
10978;BME280;5542;48.272;10.794;2023-04-21T11:07:10;95203.38;;;14.08;62.27
10978;BME280;5542;48.272;10.794;2023-04-21T11:09:38;95206.81;;;14.03;63.91
10978;BME280;5542;48.272;10.794;2023-04-21T11:12:06;95205.78;;;14.35;63.05
10978;BME280;5542;48.272;10.794;2023-04-21T11:14:35;95210.84;;;14.52;62.46
10978;BME280;5542;48.272;10.794;2023-04-21T11:17:04;95194.38;;;14.19;62.54
10978;BME280;5542;48.272;10.794;2023-04-21T11:19:31;95202.06;;;14.16;64.18
10978;BME280;5542;48.272;10.794;2023-04-21T11:21:58;95194.66;;;14.28;65.99
10978;BME280;5542;48.272;10.794;2023-04-21T11:24:24;95193.63;;;14.34;66.09
10978;BME280;5542;48.272;10.794;2023-04-21T11:26:51;95192.31;;;14.52;62.85
10978;BME280;5542;48.272;10.794;2023-04-21T11:29:17;95195.47;;;14.69;63.81
10978;BME280;5542;48.272;10.794;2023-04-21T11:31:45;95192.84;;;14.54;61.19
10978;BME280;5542;48.272;10.794;2023-04-21T11:34:14;95188.88;;;14.56;61.94
10978;BME280;5542;48.272;10.794;2023-04-21T11:36:42;95190.69;;;14.76;63.15
10978;BME280;5542;48.272;10.794;2023-04-21T11:39:10;95192.81;;;14.79;62.13
10978;BME280;5542;48.272;10.794;2023-04-21T11:41:39;95190.69;;;14.76;60.14
10978;BME280;5542;48.272;10.794;2023-04-21T11:44:06;95194.94;;;14.88;62.46
10978;BME280;5542;48.272;10.794;2023-04-21T11:46:33;95181.72;;;14.82;59.46
10978;BME280;5542;48.272;10.794;2023-04-21T11:49:02;95193.59;;;14.80;61.17
10978;BME280;5542;48.272;10.794;2023-04-21T11:51:35;95192.28;;;14.88;61.45
10978;BME280;5542;48.272;10.794;2023-04-21T11:54:04;95182.75;;;14.92;59.51
10978;BME280;5542;48.272;10.794;2023-04-21T11:56:34;95193.28;;;15.07;60.60
10978;BME280;5542;48.272;10.794;2023-04-21T11:59:05;95177.97;;;14.94;59.79
10978;BME280;5542;48.272;10.794;2023-04-21T12:01:32;95181.38;;;14.99;60.54
10978;BME280;5542;48.272;10.794;2023-04-21T12:03:58;95189.88;;;15.01;59.67
10978;BME280;5542;48.272;10.794;2023-04-21T12:06:26;95189.88;;;14.96;58.92
10978;BME280;5542;48.272;10.794;2023-04-21T12:08:55;95196.22;;;14.95;60.59
10978;BME280;5542;48.272;10.794;2023-04-21T12:11:23;95178.78;;;14.79;60.16
10978;BME280;5542;48.272;10.794;2023-04-21T12:13:50;95184.56;;;15.01;62.64
10978;BME280;5542;48.272;10.794;2023-04-21T12:16:17;95186.94;;;15.03;61.89
10978;BME280;5542;48.272;10.794;2023-04-21T12:18:43;95179.72;;;15.29;61.19
10978;BME280;5542;48.272;10.794;2023-04-21T12:21:13;95180.47;;;15.40;62.06
10978;BME280;5542;48.272;10.794;2023-04-21T12:23:40;95170.09;;;15.53;60.22
10978;BME280;5542;48.272;10.794;2023-04-21T12:26:10;95173.50;;;15.59;59.99
10978;BME280;5542;48.272;10.794;2023-04-21T12:28:37;95166.06;;;15.56;60.31
10978;BME280;5542;48.272;10.794;2023-04-21T12:31:04;95163.34;;;15.81;58.28
10978;BME280;5542;48.272;10.794;2023-04-21T12:33:31;95167.25;;;15.89;59.69
10978;BME280;5542;48.272;10.794;2023-04-21T12:35:57;95163.81;;;15.88;58.52
10978;BME280;5542;48.272;10.794;2023-04-21T12:38:24;95172.81;;;15.93;59.69
10978;BME280;5542;48.272;10.794;2023-04-21T12:40:51;95164.13;;;16.21;56.65
10978;BME280;5542;48.272;10.794;2023-04-21T12:43:19;95166.53;;;16.18;55.48
10978;BME280;5542;48.272;10.794;2023-04-21T12:45:46;95158.03;;;16.21;55.88
10978;BME280;5542;48.272;10.794;2023-04-21T12:48:12;95159.69;;;16.46;54.70
10978;BME280;5542;48.272;10.794;2023-04-21T12:50:39;95164.69;;;16.13;56.47
10978;BME280;5542;48.272;10.794;2023-04-21T12:53:06;95163.03;;;16.22;56.66
10978;BME280;5542;48.272;10.794;2023-04-21T12:55:33;95160.94;;;16.24;57.50
10978;BME280;5542;48.272;10.794;2023-04-21T12:58:00;95159.31;;;16.57;58.38
10978;BME280;5542;48.272;10.794;2023-04-21T13:00:28;95150.59;;;16.86;56.14
10978;BME280;5542;48.272;10.794;2023-04-21T13:02:54;95157.84;;;16.99;56.04
10978;BME280;5542;48.272;10.794;2023-04-21T13:05:21;95150.06;;;16.84;57.10
10978;BME280;5542;48.272;10.794;2023-04-21T13:07:47;95145.53;;;16.84;55.73